• Join FlightAware (Why Join?)
  • Login
  • US Flag 
09:57AM EST


 

Airport Tracker/Info


-or-


 

Live Flight TrackerFlight Track Log ✈ JIA4669 ✈ 18-Aug-2014 ✈ KDCA - KTYS

Flight Track Log - Related Links

Times and Time Zones

All times are in EDT time to prevent confusion due to time zone crossing. See the JIA4669 flight status page for this flight to view local times or setup timezone preferences in your user account.

Time Position Orientation Groundspeed Altitude Reporting Facility
EDT Latitude Longitude Course Direction KTS MPH feet Rate Location/Type
01:31PM 38.8167 -77.0333 233° Southwest 166 191 1,300  Level Potomac TRACON
01:32PM 38.7667 -77.0333 180° South 234 269 3,000 1,680 Climbing Potomac TRACON
01:33PM 38.6927 -77.3312 237° Southwest  Level FlightAware Approximate
01:33PM 38.7333 -77.1167 243° Southwest 268 308 4,700  Level Potomac TRACON
01:34PM 38.6376 -77.4301 234° Southwest  Level FlightAware Approximate
01:34PM 38.7167 -77.2000 256° West 270 311 6,900  Level Potomac TRACON
01:35PM 38.5933 -77.5368 247° West  Level FlightAware Approximate
01:35PM 38.6833 -77.3000 247° West 278 320 9,600  Level Potomac TRACON
01:36PM 38.5453 -77.6411 233° Southwest  Level FlightAware Approximate
01:36PM 38.6289 -77.4328 242° Southwest 302 348 11,700  Level Washington Center
01:37PM 38.5844 -77.5422 243° Southwest 341 392 12,700 960 Climbing Washington Center
01:38PM 38.5375 -77.6550 242° Southwest 352 405 13,700 960 Climbing Washington Center
01:39PM 38.4858 -77.7694 240° Southwest 364 419 14,700 960 Climbing Washington Center
01:40PM 38.4267 -77.8808 236° Southwest 374 430 15,700 960 Climbing Washington Center
01:41PM 38.3672 -77.9939 236° Southwest 379 436 16,800 1,080 Climbing Washington Center
01:42PM 38.2958 -78.1294 236° Southwest 380 437 18,000 1,020 Climbing Washington Center
01:43PM 38.2364 -78.2422 236° Southwest 381 438 19,000 960 Climbing Washington Center
01:45PM 38.1775 -78.3533 236° Southwest 381 438 20,000 960 Climbing Washington Center
01:46PM 38.1211 -78.4606 236° Southwest 370 426 21,000 960 Climbing Washington Center
01:47PM 38.0819 -78.5781 247° West 351 404 22,100 960 Climbing Washington Center
01:48PM 38.0442 -78.6914 247° West 351 404 23,100 840 Climbing Washington Center
01:49PM 38.0061 -78.8019 246° West 347 399 23,900 780 Climbing Washington Center
01:50PM 37.9603 -78.9372 247° West 349 402 24,800 720 Climbing Washington Center
01:51PM 37.9203 -79.0506 246° West 351 404 25,400 480 Climbing Washington Center
01:52PM 37.8756 -79.1614 243° Southwest 353 406 25,800 420 Climbing Washington Center
01:53PM 37.8206 -79.2694 237° Southwest 361 415 26,300 480 Climbing Washington Center
01:54PM 37.7669 -79.3772 238° Southwest 363 418 26,800 480 Climbing Washington Center
01:55PM 37.7008 -79.5106 238° Southwest 369 425 27,400 480 Climbing Washington Center
01:56PM 37.6456 -79.6219 238° Southwest 374 430 27,900 420 Climbing Washington Center
01:57PM 37.5883 -79.7328 237° Southwest 374 430 28,300 420 Climbing Washington Center
01:58PM 37.5319 -79.8439 237° Southwest 374 430 28,800 480 Climbing Washington Center
01:59PM 37.4694 -79.9669 237° Southwest 374 430 29,300 480 Climbing Washington Center
02:00PM 37.4142 -80.0761 238° Southwest 373 429 29,800 300 Climbing Washington Center
02:01PM 37.3594 -80.1831 237° Southwest 370 426 30,000 120 Climbing Washington Center
02:02PM 37.3219 -80.2575 238° Southwest 383 441 30,000  Level Atlanta Center
02:03PM 37.2631 -80.3725 237° Southwest 378 435 30,000  Level Atlanta Center
02:04PM 37.2039 -80.4897 238° Southwest 389 448 30,000  Level Atlanta Center
02:05PM 37.1425 -80.6072 237° Southwest 395 455 30,000  Level Atlanta Center
02:06PM 37.0833 -80.7242 238° Southwest 401 461 30,000  Level Atlanta Center
02:07PM 37.0367 -80.8536 246° West 406 467 30,000  Level Atlanta Center
02:08PM 36.9900 -80.9828 246° West 406 467 30,000  Level Atlanta Center
02:09PM 36.9431 -81.1119 246° West 406 467 30,000  Level Atlanta Center
02:10PM 36.8961 -81.2433 246° West 406 467 30,000  Level Atlanta Center
02:11PM 36.8508 -81.3722 246° West 406 467 30,000  Level Atlanta Center
02:12PM 36.8017 -81.5033 245° Southwest 406 467 30,000  Level Atlanta Center
02:13PM 36.7622 -81.6186 247° West 406 467 30,000  Level Atlanta Center
02:14PM 36.7147 -81.7494 246° West 406 467 30,000  Level Atlanta Center
02:15PM 36.6669 -81.8803 246° West 406 467 30,000 -780 Level Atlanta Center
02:16PM 36.6192 -82.0136 246° West 412 474 28,500 -1,500 Descending Atlanta Center
02:17PM 36.5672 -82.1492 245° Southwest 428 493 27,000 -1,680 Descending Atlanta Center
02:18PM 36.5150 -82.2875 245° Southwest 433 498 25,200 -1,920 Descending Atlanta Center
02:19PM 36.4669 -82.4228 246° West 433 498 23,200 -7,140 Descending Atlanta Center
02:20PM 36.4122 -82.5656 245° Southwest 427 491 11,000 -2,100 Descending Atlanta Center
02:21PM 36.3658 -82.6878 245° Southwest 413 475 19,100 3,000 Climbing Atlanta Center
02:22PM 36.3211 -82.8069 245° Southwest 392 451 17,100 -2,040 Descending Atlanta Center
02:23PM 36.2764 -82.9261 245° Southwest 386 444 15,100 -2,040 Descending Atlanta Center
02:24PM 36.2356 -83.0347 245° Southwest 373 429 13,100 -1,860 Descending Atlanta Center
02:25PM 36.1967 -83.1383 245° Southwest 347 399 11,400 -1,080 Descending Atlanta Center
02:26PM 36.1619 -83.2339 246° West 319 367 11,000 -240 Descending Atlanta Center
02:27PM 36.1272 -83.3217 244° Southwest 298 343 11,000 -300 Level Atlanta Center
02:28PM 36.0900 -83.4117 243° Southwest 287 330 10,500 -900 Descending Atlanta Center
02:29PM 36.0592 -83.4994 247° West 287 330 9,200 -1,260 Descending Atlanta Center
02:30PM 36.0303 -83.5689 243° Southwest 274 315 8,000 -1,200 Descending Atlanta Center
02:31PM 36.0033 -83.6408 245° Southwest 253 291 6,800 -1,320 Descending Atlanta Center
02:32PM 35.9764 -83.7128 245° Southwest 237 273 5,400 -1,440 Descending Atlanta Center
02:33PM 35.9517 -83.7797 245° Southwest 231 266 4,000 -840 Descending Atlanta Center
02:34PM 35.9289 -83.8414 245° Southwest 219 252 3,800 -480 Descending Atlanta Center
02:35PM 35.8997 -83.8825 229° Southwest 188 216 3,100 -720 Descending Atlanta Center